Time;durP1;ratioP1;P1;durP2;ratioP2;P2;SDS_P1;SDS_P2;PMS_P1;PMS_P2;Temp;Humidity;BMP_temperature;BMP_pressure;BME280_temperature;BME280_humidity;BME280_pressure;Samples;Min_cycle;Max_cycle;Signal;HPM_P1;HPM_P2
2022/01/15 00:00:20;;;;;;;84.45;51.85;;;;;;;2.83;100.00;102180.69;5010600;28;20064;-63
2022/01/15 00:02:46;;;;;;;96.95;54.58;;;;;;;2.76;100.00;102165.91;5014871;28;20037;-63
2022/01/15 00:05:12;;;;;;;78.55;48.78;;;;;;;2.82;100.00;102180.66;5011781;28;20042;-63
2022/01/15 00:07:38;;;;;;;92.63;54.30;;;;;;;2.81;100.00;102177.19;5015050;28;20117;-63
2022/01/15 00:10:05;;;;;;;83.70;52.72;;;;;;;2.85;100.00;102183.28;5014478;28;20033;-63
2022/01/15 00:12:38;;;;;;;81.65;52.95;;;;;;;2.83;100.00;102175.50;5013973;28;20472;-63
2022/01/15 00:15:04;;;;;;;91.05;53.55;;;;;;;2.86;100.00;102177.25;5014037;28;20040;-63
2022/01/15 00:17:46;;;;;;;102.57;57.92;;;;;;;2.78;100.00;102159.00;5013748;28;20022;-63
2022/01/15 00:20:23;;;;;;;104.47;59.33;;;;;;;2.72;100.00;102148.56;5012994;28;20044;-64
2022/01/15 00:22:49;;;;;;;88.30;57.25;;;;;;;2.38;100.00;102099.75;5013326;28;20423;-64
2022/01/15 00:25:15;;;;;;;99.32;55.88;;;;;;;2.79;100.00;102162.47;5013437;28;20037;-64
2022/01/15 00:27:41;;;;;;;100.60;56.90;;;;;;;2.74;100.00;102157.22;5011128;28;20512;-64
2022/01/15 00:30:09;;;;;;;100.10;56.58;;;;;;;2.67;100.00;102145.03;5009637;28;20125;-65
2022/01/15 00:32:34;;;;;;;104.80;58.40;;;;;;;2.65;100.00;102146.75;5008823;28;20041;-65
2022/01/15 00:35:00;;;;;;;99.07;55.53;;;;;;;2.77;100.00;102154.66;5009409;28;20026;-64
2022/01/15 00:37:30;;;;;;;98.82;54.88;;;;;;;2.75;100.00;102153.78;5009197;28;20029;-64
2022/01/15 00:39:59;;;;;;;89.43;53.22;;;;;;;2.60;100.00;102122.50;5009683;28;20108;-64
2022/01/15 00:42:27;;;;;;;102.75;56.92;;;;;;;2.50;100.00;102105.94;5008998;28;20804;-64
2022/01/15 00:44:53;;;;;;;97.07;54.42;;;;;;;2.74;100.00;102135.59;5003639;28;20109;-64
2022/01/15 00:47:18;;;;;;;99.10;57.00;;;;;;;2.77;100.00;102146.00;5003336;28;20203;-64
2022/01/15 00:49:44;;;;;;;81.07;53.78;;;;;;;2.55;100.00;102103.41;5002760;28;20856;-65
2022/01/15 00:52:09;;;;;;;84.40;54.55;;;;;;;2.70;100.00;102134.72;5003206;28;20034;-65
2022/01/15 00:54:34;;;;;;;94.78;54.58;;;;;;;2.67;100.00;102129.47;5007549;28;20073;-65
2022/01/15 00:57:00;;;;;;;86.97;53.03;;;;;;;2.71;100.00;102126.03;5005758;28;20029;-65
2022/01/15 00:59:25;;;;;;;92.03;54.17;;;;;;;2.67;100.00;102115.66;5005555;28;20048;-65
2022/01/15 01:01:51;;;;;;;92.70;53.60;;;;;;;2.73;100.00;102129.53;5007358;28;20041;-65
2022/01/15 01:04:16;;;;;;;85.68;50.92;;;;;;;2.74;100.00;102136.44;5002415;28;20030;-65
2022/01/15 01:06:41;;;;;;;91.07;52.60;;;;;;;2.72;100.00;102124.31;5003928;28;20088;-65
2022/01/15 01:09:07;;;;;;;92.18;52.85;;;;;;;2.68;100.00;102125.13;5003550;28;20133;-65
2022/01/15 01:11:45;;;;;;;87.80;52.72;;;;;;;2.68;100.00;102130.34;5010634;28;20026;-65
2022/01/15 01:24:48;;;;;;;83.38;50.33;;;;;;;2.61;100.00;102108.66;5011615;28;20053;-64
2022/01/15 01:27:42;;;;;;;87.65;50.20;;;;;;;2.51;100.00;102097.31;5011451;28;20038;-64
2022/01/15 01:30:24;;;;;;;92.55;52.58;;;;;;;2.42;100.00;102085.97;5009774;28;20153;-64
2022/01/15 01:35:30;;;;;;;85.88;48.67;;;;;;;2.47;100.00;102102.44;5010871;28;20419;-64
2022/01/15 01:37:59;;;;;;;82.05;48.17;;;;;;;2.38;100.00;102085.06;5010880;28;20029;-64
2022/01/15 01:40:36;;;;;;;77.47;47.22;;;;;;;2.43;100.00;102098.94;5011531;28;20104;-64
2022/01/15 01:45:50;;;;;;;86.40;46.55;;;;;;;2.45;100.00;102091.19;5013341;28;20069;-64
2022/01/15 01:48:16;;;;;;;87.28;50.30;;;;;;;2.45;100.00;102096.38;5013166;28;20078;-64
2022/01/15 01:50:42;;;;;;;85.18;51.30;;;;;;;2.34;100.00;102078.13;5010658;28;20036;-64
2022/01/15 01:53:09;;;;;;;74.50;48.75;;;;;;;2.35;100.00;102086.78;5011412;28;20120;-64
2022/01/15 01:55:35;;;;;;;78.72;47.25;;;;;;;2.38;100.00;102090.25;5011445;28;20033;-63
2022/01/15 01:58:00;;;;;;;82.70;47.88;;;;;;;2.32;100.00;102089.34;5012364;28;20455;-63
2022/01/15 02:00:27;;;;;;;73.22;45.35;;;;;;;2.38;100.00;102097.16;5011798;28;20495;-64
2022/01/15 02:02:54;;;;;;;84.10;48.00;;;;;;;2.33;100.00;102091.09;5007369;28;20045;-63
2022/01/15 02:05:20;;;;;;;70.50;46.30;;;;;;;2.37;100.00;102098.00;5005496;28;20049;-63
2022/01/15 02:07:46;;;;;;;84.60;49.22;;;;;;;2.35;100.00;102099.72;5010426;28;20026;-63
2022/01/15 02:10:15;;;;;;;85.97;51.65;;;;;;;2.38;100.00;102102.34;5009374;28;20076;-63
2022/01/15 02:12:42;;;;;;;85.70;50.60;;;;;;;2.03;100.00;102031.97;5010131;28;20494;-63
2022/01/15 02:15:12;;;;;;;85.85;49.88;;;;;;;2.35;100.00;102079.88;5009828;28;20388;-63
2022/01/15 02:17:42;;;;;;;81.78;47.33;;;;;;;2.38;100.00;102091.97;5009129;28;20128;-63
2022/01/15 02:25:45;;;;;;;;;;;;;;;2.35;100.00;102074.69;5010196;28;20095;-63
2022/01/15 02:28:11;;;;;;;81.55;45.90;;;;;;;2.32;100.00;102063.41;5011948;28;19959;-64
2022/01/15 02:30:36;;;;;;;91.05;49.72;;;;;;;2.31;100.00;102064.25;5010518;28;20037;-64
2022/01/15 02:33:02;;;;;;;83.45;48.67;;;;;;;2.25;100.00;102056.41;5008858;28;20030;-64
2022/01/15 02:35:28;;;;;;;95.40;52.75;;;;;;;2.22;100.00;102046.88;5009291;28;20855;-64
2022/01/15 02:37:53;;;;;;;89.40;51.85;;;;;;;2.25;100.00;102057.28;5008780;28;20029;-64
2022/01/15 02:40:19;;;;;;;91.55;51.95;;;;;;;2.24;100.00;102050.34;5012169;28;20022;-64
2022/01/15 02:42:44;;;;;;;93.47;54.83;;;;;;;2.25;100.00;102046.91;5012093;28;20034;-64
2022/01/15 02:45:11;;;;;;;102.50;53.72;;;;;;;2.26;100.00;102040.88;5010397;28;20100;-64
2022/01/15 02:50:22;;;;;;;89.05;54.42;;;;;;;2.26;100.00;102042.59;5011147;28;20052;-64
2022/01/15 02:52:48;;;;;;;103.63;54.95;;;;;;;2.23;100.00;102032.19;5011585;28;20396;-64
2022/01/15 02:55:13;;;;;;;95.38;52.50;;;;;;;2.25;100.00;102027.88;5011009;28;20030;-63
2022/01/15 02:57:39;;;;;;;92.28;54.40;;;;;;;2.28;100.00;102022.72;5012164;28;20482;-64
2022/01/15 03:00:05;;;;;;;108.95;52.13;;;;;;;2.28;100.00;102022.72;5006468;28;20030;-64
2022/01/15 03:02:32;;;;;;;97.35;49.72;;;;;;;2.15;100.00;102000.13;5005107;28;20492;-64
2022/01/15 03:04:58;;;;;;;95.82;49.92;;;;;;;2.17;100.00;102008.78;5007125;28;20121;-64
2022/01/15 03:07:23;;;;;;;86.00;46.28;;;;;;;2.17;100.00;102016.56;5007096;28;20555;-64
2022/01/15 03:09:49;;;;;;;89.88;48.83;;;;;;;2.19;100.00;102014.88;5007139;28;20029;-64
2022/01/15 03:12:14;;;;;;;138.32;51.17;;;;;;;2.16;100.00;102012.25;5009163;28;20037;-64
2022/01/15 03:14:40;;;;;;;86.95;44.92;;;;;;;2.21;100.00;102014.03;5008377;28;20038;-64
2022/01/15 03:17:05;;;;;;;94.53;46.78;;;;;;;2.17;100.00;102001.00;5009663;28;20100;-64
2022/01/15 03:19:31;;;;;;;85.40;45.00;;;;;;;2.19;100.00;101997.59;5009281;28;20133;-64
2022/01/15 03:21:56;;;;;;;84.70;45.72;;;;;;;2.22;100.00;102004.53;5005060;28;20117;-65
2022/01/15 03:24:21;;;;;;;76.85;38.97;;;;;;;2.19;100.00;102001.91;5011592;28;20037;-65
2022/01/15 03:26:47;;;;;;;77.82;41.75;;;;;;;2.16;100.00;101994.09;5009485;28;20033;-64
2022/01/15 03:29:12;;;;;;;83.70;42.05;;;;;;;2.17;100.00;101998.41;5013116;28;20100;-64
2022/01/15 03:31:37;;;;;;;98.55;42.08;;;;;;;2.21;100.00;102000.19;5012426;28;20030;-64
2022/01/15 03:34:03;;;;;;;83.93;40.90;;;;;;;2.18;100.00;101992.38;5011449;28;20898;-64
2022/01/15 03:36:28;;;;;;;66.55;38.13;;;;;;;1.95;100.00;101951.56;5013393;28;20084;-64
2022/01/15 03:38:54;;;;;;;67.88;38.40;;;;;;;2.18;100.00;101985.47;5012751;28;20403;-64
2022/01/15 03:41:19;;;;;;;66.15;37.20;;;;;;;2.21;100.00;101992.41;5012055;28;20037;-64
2022/01/15 03:43:44;;;;;;;97.22;39.13;;;;;;;2.23;100.00;101986.38;5015304;28;20084;-64
2022/01/15 03:46:10;;;;;;;86.70;38.38;;;;;;;2.22;100.00;101994.16;5014009;28;20480;-64
2022/01/15 03:48:35;;;;;;;72.72;37.47;;;;;;;2.20;100.00;101980.31;5013702;28;20025;-64
2022/01/15 03:51:02;;;;;;;72.07;38.08;;;;;;;2.19;100.00;101975.97;5014442;28;20125;-64
2022/01/15 03:53:28;;;;;;;86.45;40.40;;;;;;;2.18;100.00;101971.63;5011347;28;20084;-64
2022/01/15 03:55:53;;;;;;;71.47;36.67;;;;;;;2.19;100.00;101968.19;5012483;28;20029;-66
2022/01/15 03:58:19;;;;;;;85.25;40.70;;;;;;;2.17;100.00;101970.75;5014632;28;20030;-64
2022/01/15 04:00:45;;;;;;;107.18;39.38;;;;;;;2.23;100.00;101969.97;5011905;28;20080;-64
2022/01/15 04:03:10;;;;;;;90.97;34.22;;;;;;;2.15;100.00;101961.25;5012167;28;20029;-64
2022/01/15 04:05:36;;;;;;;107.78;38.10;;;;;;;2.20;100.00;101959.56;5014005;28;20040;-64
2022/01/15 04:08:01;;;;;;;79.65;35.67;;;;;;;2.16;100.00;101966.44;5006080;28;20480;-64
2022/01/15 04:10:26;;;;;;;75.93;34.00;;;;;;;2.10;100.00;101962.91;5013518;28;20060;-64
2022/01/15 04:12:52;;;;;;;76.40;34.63;;;;;;;2.12;100.00;101956.91;5011076;28;20031;-63
2022/01/15 04:15:18;;;;;;;75.63;33.22;;;;;;;2.14;100.00;101960.38;5011233;28;20022;-64
2022/01/15 04:17:46;;;;;;;87.80;37.08;;;;;;;2.04;100.00;101948.19;5014021;28;20034;-63
2022/01/15 04:20:12;;;;;;;173.73;39.80;;;;;;;2.02;100.00;101940.41;5010275;28;20080;-63
2022/01/15 04:22:38;;;;;;;91.03;33.80;;;;;;;2.04;100.00;101941.28;5013917;28;20041;-64
2022/01/15 04:25:04;;;;;;;106.00;38.38;;;;;;;2.10;100.00;101955.13;5013537;28;20029;-64
2022/01/15 04:27:29;;;;;;;88.18;37.45;;;;;;;2.01;100.00;101942.97;5014791;28;20121;-63
2022/01/15 04:29:56;;;;;;;65.50;33.83;;;;;;;2.00;100.00;101947.28;5014172;28;20112;-63
2022/01/15 04:32:21;;;;;;;82.82;34.50;;;;;;;2.09;100.00;101945.63;5013194;28;20042;-63
2022/01/15 04:34:48;;;;;;;83.10;37.83;;;;;;;2.05;100.00;101944.75;5006215;28;20081;-63
2022/01/15 04:37:18;;;;;;;71.20;34.13;;;;;;;2.11;100.00;101949.09;5012133;28;20387;-63
2022/01/15 04:39:44;;;;;;;99.22;38.08;;;;;;;2.08;100.00;101936.13;5014620;28;20038;-63
2022/01/15 04:42:10;;;;;;;68.75;35.92;;;;;;;2.05;100.00;101930.06;5014481;28;20032;-63
2022/01/15 04:44:36;;;;;;;115.43;42.92;;;;;;;1.82;100.00;101889.22;5011989;28;20026;-63
2022/01/15 04:47:03;;;;;;;69.57;33.97;;;;;;;2.09;100.00;101935.28;5013443;28;20119;-63
2022/01/15 04:49:31;;;;;;;92.00;39.60;;;;;;;2.05;100.00;101918.81;5014224;28;20101;-63
2022/01/15 04:51:57;;;;;;;83.03;36.90;;;;;;;2.10;100.00;101921.44;5013597;28;20029;-63
2022/01/15 04:54:22;;;;;;;79.43;36.90;;;;;;;2.10;100.00;101917.13;5014444;28;20037;-63
2022/01/15 04:56:48;;;;;;;147.70;44.35;;;;;;;2.10;100.00;101911.94;5014274;28;20439;-63
2022/01/15 04:59:13;;;;;;;87.93;41.13;;;;;;;2.09;100.00;101911.94;5013027;28;20472;-63
2022/01/15 05:01:39;;;;;;;163.13;41.53;;;;;;;2.11;100.00;101911.09;5013871;28;20084;-63
2022/01/15 05:04:04;;;;;;;65.70;34.25;;;;;;;2.04;100.00;101897.22;5005351;28;20385;-63
2022/01/15 05:06:29;;;;;;;74.00;34.97;;;;;;;1.69;100.00;101843.34;5012983;28;20036;-62
2022/01/15 05:09:04;;;;;;;93.82;38.47;;;;;;;1.81;100.00;101883.19;5012323;28;20033;-62
2022/01/15 05:11:43;;;;;;;104.35;40.65;;;;;;;2.08;100.00;101915.38;5011024;28;20113;-63
2022/01/15 05:14:08;;;;;;;125.10;41.00;;;;;;;2.08;100.00;101907.59;5011596;28;20034;-63
2022/01/15 05:16:33;;;;;;;69.45;38.83;;;;;;;2.09;100.00;101904.16;5012880;28;20049;-63
2022/01/15 05:18:59;;;;;;;143.02;45.17;;;;;;;2.02;100.00;101895.47;5011703;28;20164;-63
2022/01/15 05:21:24;;;;;;;56.70;34.22;;;;;;;2.09;100.00;101904.16;5007452;28;20455;-63
2022/01/15 05:23:49;;;;;;;66.18;35.47;;;;;;;2.02;100.00;101893.75;5012338;28;20029;-63
2022/01/15 05:26:15;;;;;;;94.18;41.05;;;;;;;2.03;100.00;101890.28;5012066;28;20105;-63
2022/01/15 05:28:40;;;;;;;72.10;38.28;;;;;;;1.99;100.00;101892.84;5012615;28;20464;-63
2022/01/15 05:31:05;;;;;;;126.43;44.70;;;;;;;2.03;100.00;101892.00;5012143;28;20152;-63
2022/01/15 05:33:31;;;;;;;150.40;46.40;;;;;;;1.97;100.00;101882.47;5012008;28;20041;-63
2022/01/15 05:35:56;;;;;;;75.57;35.53;;;;;;;1.99;100.00;101878.13;5009110;28;20083;-63
2022/01/15 05:38:22;;;;;;;116.40;40.53;;;;;;;2.03;100.00;101884.22;5012066;28;20033;-63
2022/01/15 05:40:47;;;;;;;59.03;33.70;;;;;;;1.75;100.00;101831.31;5012001;28;20541;-63
2022/01/15 05:43:12;;;;;;;94.45;39.80;;;;;;;1.99;100.00;101870.38;5010932;28;20445;-63
2022/01/15 05:45:38;;;;;;;160.13;45.55;;;;;;;2.00;100.00;101866.94;5010358;28;20141;-63
2022/01/15 05:48:03;;;;;;;90.75;37.60;;;;;;;1.99;100.00;101860.00;4967974;28;20037;-64
2022/01/15 05:50:29;;;;;;;62.50;33.50;;;;;;;1.91;100.00;101848.72;4968259;28;20084;-63
2022/01/15 05:52:54;;;;;;;104.30;39.50;;;;;;;1.99;100.00;101852.22;4998115;28;20076;-64
2022/01/15 05:55:19;;;;;;;65.80;34.15;;;;;;;1.77;100.00;101815.75;5011379;28;20112;-65
2022/01/15 05:57:45;;;;;;;79.63;35.72;;;;;;;1.97;100.00;101848.75;5012010;28;20491;-64
2022/01/15 06:00:10;;;;;;;114.47;37.20;;;;;;;1.99;100.00;101847.03;5009724;28;20033;-64
2022/01/15 06:02:36;;;;;;;81.32;35.97;;;;;;;1.98;100.00;101857.41;5012055;28;20040;-64
2022/01/15 06:05:01;;;;;;;91.35;34.08;;;;;;;1.82;100.00;101827.94;4973965;28;1104505;-65
2022/01/15 06:07:27;;;;;;;67.10;32.13;;;;;;;1.93;100.00;101840.94;5011590;28;20506;-64
2022/01/15 06:09:52;;;;;;;101.65;37.33;;;;;;;1.86;100.00;101834.84;5012740;28;20033;-65
2022/01/15 06:12:18;;;;;;;94.85;34.95;;;;;;;1.77;100.00;101828.72;5012954;28;20116;-64
2022/01/15 06:14:44;;;;;;;76.43;31.30;;;;;;;1.91;100.00;101853.03;5012108;28;20026;-64
2022/01/15 06:17:09;;;;;;;136.18;38.13;;;;;;;1.87;100.00;101846.94;5011809;28;20037;-64
2022/01/15 06:19:38;;;;;;;138.25;36.22;;;;;;;1.83;100.00;101834.81;5012020;28;20476;-63
2022/01/15 06:22:04;;;;;;;110.35;33.05;;;;;;;1.81;100.00;101831.34;5012719;28;20477;-64
2022/01/15 06:24:29;;;;;;;75.78;30.63;;;;;;;1.75;100.00;101831.31;5011796;28;20030;-64
2022/01/15 06:26:56;;;;;;;124.65;35.40;;;;;;;1.73;100.00;101827.81;5012871;28;20022;-64
2022/01/15 06:29:21;;;;;;;122.32;35.25;;;;;;;1.78;100.00;101833.94;5012618;28;20041;-64
2022/01/15 06:31:47;;;;;;;74.25;31.08;;;;;;;1.70;100.00;101826.94;5012735;28;20029;-64
2022/01/15 06:34:12;;;;;;;61.10;26.05;;;;;;;1.76;100.00;101843.38;5011053;28;20107;-64
2022/01/15 06:36:37;;;;;;;71.93;27.70;;;;;;;1.32;100.00;101757.53;5008785;28;20040;-64
2022/01/15 06:39:03;;;;;;;55.75;23.77;;;;;;;1.73;100.00;101838.19;4984156;28;20034;-64
2022/01/15 06:41:28;;;;;;;86.43;28.58;;;;;;;1.70;100.00;101820.03;5012229;28;20068;-64
2022/01/15 06:43:53;;;;;;;39.15;24.17;;;;;;;1.75;100.00;101838.22;5012216;28;20071;-64
2022/01/15 06:46:19;;;;;;;73.85;26.35;;;;;;;1.72;100.00;101836.47;5010874;28;20026;-64
2022/01/15 06:48:44;;;;;;;68.40;25.92;;;;;;;1.70;100.00;101834.69;5010200;28;20069;-63
2022/01/15 06:51:10;;;;;;;58.58;26.92;;;;;;;1.76;100.00;101842.56;5012164;28;20041;-63
2022/01/15 06:53:35;;;;;;;100.95;31.25;;;;;;;1.75;100.00;101841.69;5012475;28;20073;-64
2022/01/15 06:56:00;;;;;;;74.40;28.80;;;;;;;1.64;100.00;101827.75;5012436;28;20121;-63
2022/01/15 06:58:26;;;;;;;49.13;25.30;;;;;;;1.27;100.00;101760.94;5014379;28;20026;-64
2022/01/15 07:00:51;;;;;;;62.10;27.27;;;;;;;1.74;100.00;101839.06;5015954;28;20474;-62
2022/01/15 07:03:17;;;;;;;66.82;25.38;;;;;;;1.68;100.00;101839.88;5014465;28;20113;-62
2022/01/15 07:05:42;;;;;;;73.60;29.27;;;;;;;1.68;100.00;101839.00;5014495;28;20088;-63
2022/01/15 07:08:08;;;;;;;76.63;27.55;;;;;;;1.70;100.00;101845.94;5014974;28;20084;-63
2022/01/15 07:10:34;;;;;;;52.40;22.65;;;;;;;1.65;100.00;101849.34;5014582;28;20121;-63
2022/01/15 07:13:00;;;;;;;90.80;29.45;;;;;;;1.62;100.00;101850.19;5015367;28;20469;-64
2022/01/15 07:15:25;;;;;;;60.85;25.60;;;;;;;1.24;100.00;101784.19;5012879;28;20116;-64
2022/01/15 07:17:51;;;;;;;57.35;25.23;;;;;;;1.59;100.00;101844.94;5005279;28;20037;-64
2022/01/15 07:20:18;;;;;;;70.03;26.20;;;;;;;1.50;100.00;101842.28;5003098;28;20089;-64
2022/01/15 07:22:44;;;;;;;45.65;22.08;;;;;;;1.65;100.00;101850.22;5002870;28;20559;-64
2022/01/15 07:25:10;;;;;;;39.72;21.05;;;;;;;1.60;100.00;101841.53;5004038;28;20128;-64
2022/01/15 07:27:36;;;;;;;51.25;23.88;;;;;;;1.59;100.00;101832.00;5006633;28;20056;-64
2022/01/15 07:30:06;;;;;;;88.18;25.70;;;;;;;1.66;100.00;101851.94;5005532;28;20136;-64
2022/01/15 07:32:32;;;;;;;77.32;24.02;;;;;;;1.62;100.00;101850.19;5005415;28;20038;-64
2022/01/15 07:34:58;;;;;;;40.25;21.40;;;;;;;1.57;100.00;101841.50;5005850;28;20099;-66
2022/01/15 07:37:23;;;;;;;38.13;23.13;;;;;;;1.17;100.00;101774.63;5010753;28;20542;-63
2022/01/15 07:39:48;;;;;;;57.47;21.73;;;;;;;1.57;100.00;101832.84;5011038;28;20030;-63
2022/01/15 07:42:14;;;;;;;89.85;31.02;;;;;;;1.64;100.00;101848.47;5007173;28;20093;-64
2022/01/15 07:44:40;;;;;;;69.53;25.50;;;;;;;1.60;100.00;101841.53;5000005;28;20049;-64
2022/01/15 07:47:05;;;;;;;54.08;25.20;;;;;;;1.63;100.00;101851.91;5002570;28;20041;-64
2022/01/15 07:49:32;;;;;;;85.60;26.77;;;;;;;1.55;100.00;101838.88;5007849;28;20076;-64
2022/01/15 07:51:58;;;;;;;80.20;26.95;;;;;;;1.63;100.00;101862.28;5007226;28;20026;-64
2022/01/15 07:54:24;;;;;;;60.17;25.75;;;;;;;1.64;100.00;101853.66;5011774;28;20389;-64
2022/01/15 07:56:51;;;;;;;172.27;37.28;;;;;;;1.61;100.00;101851.03;5008029;28;20021;-64
2022/01/15 07:59:16;;;;;;;52.13;23.90;;;;;;;1.60;100.00;101846.69;5007903;28;20146;-64
2022/01/15 08:01:41;;;;;;;67.03;22.77;;;;;;;1.60;100.00;101851.88;5007106;28;20502;-64
2022/01/15 08:04:07;;;;;;;120.20;28.88;;;;;;;1.61;100.00;101842.41;5007304;28;20037;-65
2022/01/15 08:06:32;;;;;;;96.30;30.00;;;;;;;1.63;100.00;101844.13;5005167;28;20033;-64
2022/01/15 08:08:57;;;;;;;74.68;27.08;;;;;;;1.45;100.00;101815.50;5007155;28;20112;-66
2022/01/15 08:11:23;;;;;;;64.30;26.25;;;;;;;1.52;100.00;101822.47;5013373;28;20080;-63
2022/01/15 08:13:48;;;;;;;75.40;26.27;;;;;;;1.68;100.00;101839.88;5013441;28;20034;-63
2022/01/15 08:16:14;;;;;;;87.93;26.92;;;;;;;1.68;100.00;101833.81;5012992;28;20033;-69
2022/01/15 08:18:39;;;;;;;113.53;27.63;;;;;;;1.62;100.00;101820.81;5014579;28;20030;-64
2022/01/15 08:21:05;;;;;;;38.50;21.00;;;;;;;1.68;100.00;101832.13;5013104;28;20044;-63
2022/01/15 08:23:32;;;;;;;63.05;24.40;;;;;;;1.68;100.00;101821.75;5012693;28;20057;-64
2022/01/15 08:25:58;;;;;;;48.65;22.65;;;;;;;1.00;100.00;101707.19;4991404;28;20950;-64
2022/01/15 08:28:24;;;;;;;66.38;26.75;;;;;;;1.71;100.00;101819.19;4967044;28;20080;-64
2022/01/15 08:30:50;;;;;;;73.13;24.30;;;;;;;1.74;100.00;101824.38;4967655;28;20178;-64
2022/01/15 08:33:16;;;;;;;73.45;26.63;;;;;;;1.35;100.00;101761.88;4968953;28;20654;-64
2022/01/15 08:35:42;;;;;;;97.72;29.92;;;;;;;1.69;100.00;101814.84;4969108;28;20033;-64
2022/01/15 08:38:07;;;;;;;52.35;24.15;;;;;;;1.55;100.00;101792.25;4969479;28;20065;-64
2022/01/15 08:40:33;;;;;;;44.55;23.80;;;;;;;1.70;100.00;101822.63;4968316;28;20932;-67
2022/01/15 08:42:59;;;;;;;68.20;25.80;;;;;;;1.77;100.00;101818.34;4969076;28;20053;-65
2022/01/15 08:45:26;;;;;;;133.70;30.90;;;;;;;1.78;100.00;101817.50;4970360;28;20086;-65
2022/01/15 08:47:52;;;;;;;88.90;25.10;;;;;;;1.71;100.00;101807.94;4968774;28;20026;-65
2022/01/15 08:50:17;;;;;;;49.80;22.15;;;;;;;1.72;100.00;101815.75;4968846;28;20111;-65
2022/01/15 08:52:43;;;;;;;73.15;26.25;;;;;;;1.75;100.00;101810.59;4968262;28;20030;-65
2022/01/15 08:55:09;;;;;;;48.13;22.58;;;;;;;1.71;100.00;101797.59;4970356;28;20030;-65
2022/01/15 08:57:35;;;;;;;62.88;25.88;;;;;;;1.83;100.00;101814.09;4968564;28;20291;-64
2022/01/15 09:00:01;;;;;;;92.90;28.88;;;;;;;1.60;100.00;101768.13;4967067;28;20940;-64
2022/01/15 09:02:27;;;;;;;107.05;26.95;;;;;;;1.59;100.00;101771.59;4968520;28;20030;-65
2022/01/15 09:04:53;;;;;;;57.15;21.90;;;;;;;1.57;100.00;101771.56;4980401;28;20100;-65
2022/01/15 09:07:19;;;;;;;37.55;20.77;;;;;;;1.85;100.00;101820.16;5004391;28;20088;-65
2022/01/15 09:09:44;;;;;;;38.85;19.55;;;;;;;1.91;100.00;101828.00;5005861;28;20029;-64
2022/01/15 09:12:11;;;;;;;34.67;19.98;;;;;;;1.26;100.00;101735.88;5000002;28;20052;-65
2022/01/15 09:14:37;;;;;;;56.75;22.92;;;;;;;1.89;100.00;101824.50;4999645;28;20388;-65
2022/01/15 09:17:03;;;;;;;62.28;23.67;;;;;;;1.66;100.00;101774.22;5013329;28;20025;-64
2022/01/15 09:19:28;;;;;;;112.43;27.92;;;;;;;1.90;100.00;101826.25;5013357;28;20468;-64
2022/01/15 09:21:54;;;;;;;51.53;22.00;;;;;;;1.87;100.00;101815.84;5005692;28;20092;-65
2022/01/15 09:24:19;;;;;;;43.17;20.55;;;;;;;1.87;100.00;101821.03;5013385;28;20026;-64
2022/01/15 09:26:59;;;;;;;61.83;23.20;;;;;;;1.92;100.00;101821.09;5012779;28;20037;-64
2022/01/15 09:32:09;;;;;;;95.38;23.27;;;;;;;1.95;100.00;101819.38;5012724;28;20048;-65
2022/01/15 09:34:35;;;;;;;40.85;21.67;;;;;;;1.99;100.00;101818.53;5011537;28;20042;-64
2022/01/15 09:37:01;;;;;;;84.03;24.92;;;;;;;2.05;100.00;101820.31;5011215;28;20141;-64
2022/01/15 09:39:27;;;;;;;89.55;25.45;;;;;;;1.96;100.00;101789.16;5013441;28;20022;-64
2022/01/15 09:41:54;;;;;;;89.82;26.80;;;;;;;1.98;100.00;101796.09;5012791;28;20030;-65
2022/01/15 09:44:22;;;;;;;51.45;23.23;;;;;;;1.74;100.00;101767.38;5010815;28;20030;-64
2022/01/15 09:46:48;;;;;;;48.15;21.90;;;;;;;2.03;100.00;101806.47;5011815;28;20104;-64
2022/01/15 09:49:18;;;;;;;65.70;22.83;;;;;;;2.06;100.00;101806.50;5012716;28;20030;-64
2022/01/15 09:51:44;;;;;;;38.58;20.52;;;;;;;2.10;100.00;101812.56;5002626;28;20491;-64
2022/01/15 09:54:12;;;;;;;79.90;23.20;;;;;;;1.84;100.00;101769.19;5009994;28;20484;-64
2022/01/15 09:56:37;;;;;;;37.55;18.90;;;;;;;2.06;100.00;101797.00;5013353;28;20024;-65
2022/01/15 09:59:03;;;;;;;34.83;20.63;;;;;;;2.06;100.00;101794.41;5012909;28;20380;-64
2022/01/15 10:01:30;;;;;;;60.83;24.35;;;;;;;2.04;100.00;101782.28;5012183;28;20034;-65
2022/01/15 10:03:56;;;;;;;93.00;27.23;;;;;;;2.13;100.00;101776.31;5010598;28;20096;-64
2022/01/15 10:06:22;;;;;;;173.52;36.88;;;;;;;2.26;100.00;101806.63;5011279;28;20124;-65
2022/01/15 10:09:00;;;;;;;65.15;26.45;;;;;;;2.26;100.00;101806.63;5008152;28;20125;-65
2022/01/15 10:11:43;;;;;;;72.90;26.55;;;;;;;2.21;100.00;101806.59;5012182;28;20029;-64
2022/01/15 10:14:26;;;;;;;40.65;22.73;;;;;;;2.17;100.00;101810.03;5012854;28;20029;-64
2022/01/15 10:16:51;;;;;;;137.88;34.95;;;;;;;2.21;100.00;101810.91;5012042;28;20117;-64
2022/01/15 10:19:25;;;;;;;116.50;34.15;;;;;;;2.24;100.00;101805.75;5011859;28;20109;-65
2022/01/15 10:22:12;;;;;;;53.60;26.58;;;;;;;2.29;100.00;101811.84;5011065;28;20121;-64
2022/01/15 10:24:39;;;;;;;73.00;28.48;;;;;;;2.33;100.00;101813.59;5009501;28;20097;-64
2022/01/15 10:27:21;;;;;;;70.57;26.15;;;;;;;1.88;100.00;101726.91;5008950;28;20037;-64
2022/01/15 10:29:56;;;;;;;58.42;27.17;;;;;;;2.32;100.00;101786.81;5010457;28;20030;-64
2022/01/15 10:32:23;;;;;;;67.45;26.17;;;;;;;2.51;100.00;101795.53;5012661;28;20038;-64
2022/01/15 10:34:49;;;;;;;92.43;29.63;;;;;;;2.40;100.00;101787.69;5016059;28;20080;-65
2022/01/15 10:37:23;;;;;;;103.53;27.25;;;;;;;2.41;100.00;101799.81;5012550;28;20029;-65
2022/01/15 10:39:57;;;;;;;62.33;24.67;;;;;;;2.48;100.00;101793.78;5010656;28;20041;-64
2022/01/15 10:42:25;;;;;;;;;;;;;;;2.51;100.00;101785.16;5016910;28;20095;-65
2022/01/15 10:44:52;;;;;;;64.22;23.27;;;;;;;2.57;100.00;101785.19;5014843;28;19925;-64
2022/01/15 10:47:19;;;;;;;60.13;23.90;;;;;;;2.60;100.00;101777.44;5013625;28;20033;-65
2022/01/15 10:49:44;;;;;;;98.25;27.25;;;;;;;2.69;100.00;101787.84;5009425;28;20115;-64
2022/01/15 10:52:19;;;;;;;61.13;23.98;;;;;;;2.57;100.00;101785.19;5013573;28;20021;-64
2022/01/15 10:55:01;;;;;;;74.82;25.35;;;;;;;2.57;100.00;101791.25;5012850;28;20476;-64
2022/01/15 10:57:42;;;;;;;106.18;28.55;;;;;;;2.53;100.00;101773.91;5012529;28;20468;-63
2022/01/15 11:00:21;;;;;;;109.30;29.67;;;;;;;2.20;100.00;101701.16;5015849;28;20053;-64
2022/01/15 11:02:52;;;;;;;69.93;26.95;;;;;;;2.56;100.00;101773.09;5004923;28;20146;-64
2022/01/15 11:05:32;;;;;;;128.20;29.88;;;;;;;2.49;100.00;101777.38;4970525;28;20064;-65
2022/01/15 11:08:19;;;;;;;89.03;29.73;;;;;;;2.51;100.00;101769.59;4970795;28;20196;-65
2022/01/15 11:10:52;;;;;;;75.90;27.27;;;;;;;2.51;100.00;101767.88;4971323;28;20030;-65
2022/01/15 11:13:23;;;;;;;65.28;28.65;;;;;;;2.51;100.00;101769.59;4970152;28;20131;-64
2022/01/15 11:15:54;;;;;;;48.10;25.23;;;;;;;2.56;100.00;101745.44;4970890;28;20069;-65
2022/01/15 11:18:48;;;;;;;58.70;27.25;;;;;;;2.65;100.00;101742.00;4984870;28;20041;-65
2022/01/15 11:21:15;;;;;;;66.72;28.70;;;;;;;2.79;100.00;101755.88;4967959;28;20041;-64
2022/01/15 11:23:42;;;;;;;83.68;29.38;;;;;;;2.72;100.00;101748.94;4970997;28;20029;-61
2022/01/15 11:26:12;;;;;;;69.90;29.80;;;;;;;2.71;100.00;101751.50;4970374;28;20033;-65
2022/01/15 11:28:38;;;;;;;80.28;29.63;;;;;;;2.79;100.00;101761.06;4969152;28;20906;-65
2022/01/15 11:31:10;;;;;;;61.28;27.05;;;;;;;2.77;100.00;101752.41;4967416;28;20139;-65
2022/01/15 11:33:39;;;;;;;77.35;31.63;;;;;;;2.45;100.00;101696.94;4967318;28;20049;-65
2022/01/15 11:36:06;;;;;;;77.05;29.90;;;;;;;2.87;100.00;101750.72;4967946;28;20033;-64